sensor_id;sensor_type;location;lat;lon;timestamp;P1;durP1;ratioP1;P2;durP2;ratioP2
4971;SDS011;2501;51.214;6.768;2023-03-23T00:00:05;4.30;;;2.30;;
4971;SDS011;2501;51.214;6.768;2023-03-23T00:02:35;5.30;;;2.80;;
4971;SDS011;2501;51.214;6.768;2023-03-23T00:05:03;2.80;;;2.50;;
4971;SDS011;2501;51.214;6.768;2023-03-23T00:07:33;6.15;;;3.00;;
4971;SDS011;2501;51.214;6.768;2023-03-23T00:10:02;2.67;;;2.47;;
4971;SDS011;2501;51.214;6.768;2023-03-23T00:12:32;3.28;;;2.40;;
4971;SDS011;2501;51.214;6.768;2023-03-23T00:15:10;5.57;;;3.08;;
4971;SDS011;2501;51.214;6.768;2023-03-23T00:17:42;2.97;;;2.25;;
4971;SDS011;2501;51.214;6.768;2023-03-23T00:20:11;2.60;;;2.30;;
4971;SDS011;2501;51.214;6.768;2023-03-23T00:22:39;3.17;;;2.50;;
4971;SDS011;2501;51.214;6.768;2023-03-23T00:25:08;2.67;;;2.47;;
4971;SDS011;2501;51.214;6.768;2023-03-23T00:27:36;3.67;;;2.70;;
4971;SDS011;2501;51.214;6.768;2023-03-23T00:30:06;2.80;;;2.30;;
4971;SDS011;2501;51.214;6.768;2023-03-23T00:32:38;5.30;;;2.63;;
4971;SDS011;2501;51.214;6.768;2023-03-23T00:35:06;4.18;;;2.78;;
4971;SDS011;2501;51.214;6.768;2023-03-23T00:37:35;3.10;;;2.80;;
4971;SDS011;2501;51.214;6.768;2023-03-23T00:40:04;3.33;;;2.60;;
4971;SDS011;2501;51.214;6.768;2023-03-23T00:42:35;4.60;;;2.70;;
4971;SDS011;2501;51.214;6.768;2023-03-23T00:45:04;5.30;;;2.70;;
4971;SDS011;2501;51.214;6.768;2023-03-23T00:47:38;4.03;;;2.20;;
4971;SDS011;2501;51.214;6.768;2023-03-23T00:50:07;4.03;;;3.00;;
4971;SDS011;2501;51.214;6.768;2023-03-23T00:52:38;2.60;;;2.40;;
4971;SDS011;2501;51.214;6.768;2023-03-23T00:55:06;2.75;;;2.50;;
4971;SDS011;2501;51.214;6.768;2023-03-23T00:57:35;3.38;;;2.63;;
4971;SDS011;2501;51.214;6.768;2023-03-23T01:00:04;2.90;;;2.63;;
4971;SDS011;2501;51.214;6.768;2023-03-23T01:02:39;4.60;;;3.33;;
4971;SDS011;2501;51.214;6.768;2023-03-23T01:05:10;5.23;;;3.30;;
4971;SDS011;2501;51.214;6.768;2023-03-23T01:07:39;7.13;;;3.10;;
4971;SDS011;2501;51.214;6.768;2023-03-23T01:10:09;3.28;;;2.70;;
4971;SDS011;2501;51.214;6.768;2023-03-23T01:12:43;3.30;;;3.00;;
4971;SDS011;2501;51.214;6.768;2023-03-23T01:15:13;4.40;;;2.92;;
4971;SDS011;2501;51.214;6.768;2023-03-23T01:17:45;5.30;;;3.43;;
4971;SDS011;2501;51.214;6.768;2023-03-23T01:20:14;3.10;;;2.63;;
4971;SDS011;2501;51.214;6.768;2023-03-23T01:22:43;5.35;;;3.00;;
4971;SDS011;2501;51.214;6.768;2023-03-23T01:25:12;3.47;;;2.75;;
4971;SDS011;2501;51.214;6.768;2023-03-23T01:27:41;5.70;;;3.20;;
4971;SDS011;2501;51.214;6.768;2023-03-23T01:30:11;7.97;;;3.00;;
4971;SDS011;2501;51.214;6.768;2023-03-23T01:32:40;4.20;;;2.72;;
4971;SDS011;2501;51.214;6.768;2023-03-23T01:35:11;2.40;;;2.20;;
4971;SDS011;2501;51.214;6.768;2023-03-23T01:37:40;4.20;;;2.80;;
4971;SDS011;2501;51.214;6.768;2023-03-23T01:40:09;5.65;;;3.67;;
4971;SDS011;2501;51.214;6.768;2023-03-23T01:42:38;5.90;;;3.10;;
4971;SDS011;2501;51.214;6.768;2023-03-23T01:48:00;3.13;;;2.78;;
4971;SDS011;2501;51.214;6.768;2023-03-23T01:50:36;6.63;;;2.85;;
4971;SDS011;2501;51.214;6.768;2023-03-23T01:53:07;7.40;;;3.90;;
4971;SDS011;2501;51.214;6.768;2023-03-23T01:55:38;5.07;;;3.63;;
4971;SDS011;2501;51.214;6.768;2023-03-23T01:58:09;3.80;;;3.50;;
4971;SDS011;2501;51.214;6.768;2023-03-23T02:00:39;5.78;;;3.65;;
4971;SDS011;2501;51.214;6.768;2023-03-23T02:03:08;6.10;;;3.80;;
4971;SDS011;2501;51.214;6.768;2023-03-23T02:05:41;5.30;;;3.90;;
4971;SDS011;2501;51.214;6.768;2023-03-23T02:08:10;5.63;;;4.05;;
4971;SDS011;2501;51.214;6.768;2023-03-23T02:10:43;6.20;;;3.90;;
4971;SDS011;2501;51.214;6.768;2023-03-23T02:13:12;6.97;;;4.60;;
4971;SDS011;2501;51.214;6.768;2023-03-23T02:15:45;5.50;;;3.22;;
4971;SDS011;2501;51.214;6.768;2023-03-23T02:18:22;7.00;;;4.00;;
4971;SDS011;2501;51.214;6.768;2023-03-23T02:24:13;5.15;;;3.83;;
4971;SDS011;2501;51.214;6.768;2023-03-23T02:27:11;7.20;;;3.97;;
4971;SDS011;2501;51.214;6.768;2023-03-23T02:29:49;5.03;;;3.83;;
4971;SDS011;2501;51.214;6.768;2023-03-23T02:32:33;6.70;;;4.55;;
4971;SDS011;2501;51.214;6.768;2023-03-23T02:35:31;7.32;;;4.50;;
4971;SDS011;2501;51.214;6.768;2023-03-23T02:38:04;5.40;;;3.60;;
4971;SDS011;2501;51.214;6.768;2023-03-23T02:40:36;7.05;;;3.45;;
4971;SDS011;2501;51.214;6.768;2023-03-23T02:43:09;9.18;;;4.50;;
4971;SDS011;2501;51.214;6.768;2023-03-23T02:45:41;6.87;;;3.20;;
4971;SDS011;2501;51.214;6.768;2023-03-23T02:48:13;8.07;;;3.60;;
4971;SDS011;2501;51.214;6.768;2023-03-23T02:50:49;6.53;;;4.15;;
4971;SDS011;2501;51.214;6.768;2023-03-23T02:53:21;3.47;;;3.17;;
4971;SDS011;2501;51.214;6.768;2023-03-23T02:55:52;4.32;;;3.00;;
4971;SDS011;2501;51.214;6.768;2023-03-23T02:58:23;4.78;;;3.40;;
4971;SDS011;2501;51.214;6.768;2023-03-23T03:00:53;6.32;;;3.50;;
4971;SDS011;2501;51.214;6.768;2023-03-23T03:03:25;4.63;;;3.83;;
4971;SDS011;2501;51.214;6.768;2023-03-23T03:06:01;4.53;;;3.00;;
4971;SDS011;2501;51.214;6.768;2023-03-23T03:08:39;5.70;;;3.63;;
4971;SDS011;2501;51.214;6.768;2023-03-23T03:11:14;6.20;;;4.00;;
4971;SDS011;2501;51.214;6.768;2023-03-23T03:13:47;4.70;;;3.20;;
4971;SDS011;2501;51.214;6.768;2023-03-23T03:16:23;8.40;;;3.30;;
4971;SDS011;2501;51.214;6.768;2023-03-23T03:18:56;5.03;;;3.47;;
4971;SDS011;2501;51.214;6.768;2023-03-23T03:21:33;6.47;;;4.10;;
4971;SDS011;2501;51.214;6.768;2023-03-23T03:24:03;3.97;;;3.55;;
4971;SDS011;2501;51.214;6.768;2023-03-23T03:26:36;7.95;;;3.72;;
4971;SDS011;2501;51.214;6.768;2023-03-23T03:29:12;3.85;;;3.33;;
4971;SDS011;2501;51.214;6.768;2023-03-23T03:31:42;4.80;;;3.05;;
4971;SDS011;2501;51.214;6.768;2023-03-23T03:34:13;5.20;;;3.50;;
4971;SDS011;2501;51.214;6.768;2023-03-23T03:36:46;5.77;;;3.13;;
4971;SDS011;2501;51.214;6.768;2023-03-23T03:39:17;4.95;;;3.33;;
4971;SDS011;2501;51.214;6.768;2023-03-23T03:41:47;4.30;;;2.60;;
4971;SDS011;2501;51.214;6.768;2023-03-23T03:44:16;3.53;;;2.80;;
4971;SDS011;2501;51.214;6.768;2023-03-23T03:46:45;8.50;;;3.63;;
4971;SDS011;2501;51.214;6.768;2023-03-23T03:49:14;4.55;;;2.85;;
4971;SDS011;2501;51.214;6.768;2023-03-23T03:51:45;3.53;;;3.13;;
4971;SDS011;2501;51.214;6.768;2023-03-23T03:54:13;2.92;;;2.70;;
4971;SDS011;2501;51.214;6.768;2023-03-23T03:56:42;3.13;;;2.80;;
4971;SDS011;2501;51.214;6.768;2023-03-23T03:59:12;5.85;;;3.60;;
4971;SDS011;2501;51.214;6.768;2023-03-23T04:01:40;3.58;;;2.45;;
4971;SDS011;2501;51.214;6.768;2023-03-23T04:04:08;2.40;;;2.20;;
4971;SDS011;2501;51.214;6.768;2023-03-23T04:06:37;2.90;;;2.67;;
4971;SDS011;2501;51.214;6.768;2023-03-23T04:09:09;6.17;;;2.60;;
4971;SDS011;2501;51.214;6.768;2023-03-23T04:11:38;4.70;;;3.20;;
4971;SDS011;2501;51.214;6.768;2023-03-23T04:14:06;4.95;;;3.10;;
4971;SDS011;2501;51.214;6.768;2023-03-23T04:16:35;4.25;;;2.60;;
4971;SDS011;2501;51.214;6.768;2023-03-23T04:19:03;3.47;;;2.50;;
4971;SDS011;2501;51.214;6.768;2023-03-23T04:21:31;2.15;;;2.03;;
4971;SDS011;2501;51.214;6.768;2023-03-23T04:24:00;3.20;;;2.10;;
4971;SDS011;2501;51.214;6.768;2023-03-23T04:26:31;3.53;;;2.50;;
4971;SDS011;2501;51.214;6.768;2023-03-23T04:29:00;2.87;;;2.67;;
4971;SDS011;2501;51.214;6.768;2023-03-23T04:31:28;3.45;;;2.35;;
4971;SDS011;2501;51.214;6.768;2023-03-23T04:33:57;1.90;;;1.80;;
4971;SDS011;2501;51.214;6.768;2023-03-23T04:36:26;2.00;;;1.90;;
4971;SDS011;2501;51.214;6.768;2023-03-23T04:38:55;5.13;;;2.20;;
4971;SDS011;2501;51.214;6.768;2023-03-23T04:41:24;2.10;;;2.00;;
4971;SDS011;2501;51.214;6.768;2023-03-23T04:43:56;4.20;;;2.38;;
4971;SDS011;2501;51.214;6.768;2023-03-23T04:46:27;2.55;;;2.17;;
4971;SDS011;2501;51.214;6.768;2023-03-23T04:48:56;2.20;;;2.10;;
4971;SDS011;2501;51.214;6.768;2023-03-23T04:51:26;3.87;;;2.37;;
4971;SDS011;2501;51.214;6.768;2023-03-23T04:53:56;2.35;;;2.25;;
4971;SDS011;2501;51.214;6.768;2023-03-23T04:56:25;2.30;;;2.17;;
4971;SDS011;2501;51.214;6.768;2023-03-23T04:58:55;3.30;;;2.60;;
4971;SDS011;2501;51.214;6.768;2023-03-23T05:01:26;2.70;;;2.50;;
4971;SDS011;2501;51.214;6.768;2023-03-23T05:03:54;2.90;;;2.40;;
4971;SDS011;2501;51.214;6.768;2023-03-23T05:06:22;7.28;;;2.50;;
4971;SDS011;2501;51.214;6.768;2023-03-23T05:08:51;2.30;;;2.00;;
4971;SDS011;2501;51.214;6.768;2023-03-23T05:11:19;2.25;;;2.10;;
4971;SDS011;2501;51.214;6.768;2023-03-23T05:13:48;2.95;;;2.40;;
4971;SDS011;2501;51.214;6.768;2023-03-23T05:16:19;3.20;;;2.60;;
4971;SDS011;2501;51.214;6.768;2023-03-23T05:18:47;4.30;;;2.50;;
4971;SDS011;2501;51.214;6.768;2023-03-23T05:21:16;3.30;;;2.50;;
4971;SDS011;2501;51.214;6.768;2023-03-23T05:23:44;3.10;;;2.40;;
4971;SDS011;2501;51.214;6.768;2023-03-23T05:26:19;3.75;;;2.30;;
4971;SDS011;2501;51.214;6.768;2023-03-23T05:28:49;4.60;;;2.55;;
4971;SDS011;2501;51.214;6.768;2023-03-23T05:31:21;2.85;;;2.65;;
4971;SDS011;2501;51.214;6.768;2023-03-23T05:33:50;3.13;;;2.70;;
4971;SDS011;2501;51.214;6.768;2023-03-23T05:36:19;4.70;;;2.60;;
4971;SDS011;2501;51.214;6.768;2023-03-23T05:38:48;5.30;;;2.50;;
4971;SDS011;2501;51.214;6.768;2023-03-23T05:41:16;2.67;;;2.47;;
4971;SDS011;2501;51.214;6.768;2023-03-23T05:43:45;5.60;;;2.80;;
4971;SDS011;2501;51.214;6.768;2023-03-23T05:46:13;3.55;;;2.42;;
4971;SDS011;2501;51.214;6.768;2023-03-23T05:48:45;3.03;;;2.30;;
4971;SDS011;2501;51.214;6.768;2023-03-23T05:51:13;3.40;;;2.63;;
4971;SDS011;2501;51.214;6.768;2023-03-23T05:53:43;2.70;;;2.50;;
4971;SDS011;2501;51.214;6.768;2023-03-23T05:56:12;5.68;;;2.90;;
4971;SDS011;2501;51.214;6.768;2023-03-23T05:58:40;3.67;;;3.20;;
4971;SDS011;2501;51.214;6.768;2023-03-23T06:01:09;4.60;;;3.30;;
4971;SDS011;2501;51.214;6.768;2023-03-23T06:03:39;3.90;;;2.75;;
4971;SDS011;2501;51.214;6.768;2023-03-23T06:06:11;4.05;;;2.47;;
4971;SDS011;2501;51.214;6.768;2023-03-23T06:08:40;3.42;;;2.90;;
4971;SDS011;2501;51.214;6.768;2023-03-23T06:11:08;7.28;;;3.00;;
4971;SDS011;2501;51.214;6.768;2023-03-23T06:13:37;3.70;;;2.67;;
4971;SDS011;2501;51.214;6.768;2023-03-23T06:16:06;5.10;;;2.58;;
4971;SDS011;2501;51.214;6.768;2023-03-23T06:18:35;4.32;;;2.78;;
4971;SDS011;2501;51.214;6.768;2023-03-23T06:21:06;4.65;;;2.90;;
4971;SDS011;2501;51.214;6.768;2023-03-23T06:23:37;3.25;;;2.60;;
4971;SDS011;2501;51.214;6.768;2023-03-23T06:26:07;5.00;;;3.40;;
4971;SDS011;2501;51.214;6.768;2023-03-23T06:28:37;9.13;;;3.10;;
4971;SDS011;2501;51.214;6.768;2023-03-23T06:31:06;4.03;;;2.88;;
4971;SDS011;2501;51.214;6.768;2023-03-23T06:33:35;3.45;;;2.70;;
4971;SDS011;2501;51.214;6.768;2023-03-23T06:36:04;5.13;;;2.60;;
4971;SDS011;2501;51.214;6.768;2023-03-23T06:38:38;4.35;;;2.58;;
4971;SDS011;2501;51.214;6.768;2023-03-23T06:41:07;4.27;;;2.57;;
4971;SDS011;2501;51.214;6.768;2023-03-23T06:43:36;4.57;;;2.20;;
4971;SDS011;2501;51.214;6.768;2023-03-23T06:46:05;5.68;;;2.30;;
4971;SDS011;2501;51.214;6.768;2023-03-23T06:48:34;7.95;;;2.97;;
4971;SDS011;2501;51.214;6.768;2023-03-23T06:51:03;11.48;;;3.53;;
4971;SDS011;2501;51.214;6.768;2023-03-23T06:53:32;7.38;;;2.50;;
4971;SDS011;2501;51.214;6.768;2023-03-23T06:56:04;7.07;;;2.60;;
4971;SDS011;2501;51.214;6.768;2023-03-23T06:58:33;4.70;;;2.35;;
4971;SDS011;2501;51.214;6.768;2023-03-23T07:01:01;4.40;;;2.22;;
4971;SDS011;2501;51.214;6.768;2023-03-23T07:03:30;4.07;;;2.40;;
4971;SDS011;2501;51.214;6.768;2023-03-23T07:05:59;8.35;;;2.60;;
4971;SDS011;2501;51.214;6.768;2023-03-23T07:08:28;4.80;;;2.28;;
4971;SDS011;2501;51.214;6.768;2023-03-23T07:10:56;7.43;;;2.28;;
4971;SDS011;2501;51.214;6.768;2023-03-23T07:13:28;7.50;;;4.80;;
4971;SDS011;2501;51.214;6.768;2023-03-23T07:15:56;4.87;;;2.60;;
4971;SDS011;2501;51.214;6.768;2023-03-23T07:18:25;4.80;;;2.17;;
4971;SDS011;2501;51.214;6.768;2023-03-23T07:20:55;6.97;;;2.38;;
4971;SDS011;2501;51.214;6.768;2023-03-23T07:23:23;6.00;;;2.20;;
4971;SDS011;2501;51.214;6.768;2023-03-23T07:25:52;2.50;;;2.30;;
4971;SDS011;2501;51.214;6.768;2023-03-23T07:28:20;8.52;;;2.30;;
4971;SDS011;2501;51.214;6.768;2023-03-23T07:30:52;5.07;;;2.00;;
4971;SDS011;2501;51.214;6.768;2023-03-23T07:33:21;6.15;;;2.40;;
4971;SDS011;2501;51.214;6.768;2023-03-23T07:35:50;4.50;;;2.25;;
4971;SDS011;2501;51.214;6.768;2023-03-23T07:38:18;4.28;;;2.20;;
4971;SDS011;2501;51.214;6.768;2023-03-23T07:40:47;5.07;;;2.35;;
4971;SDS011;2501;51.214;6.768;2023-03-23T07:43:15;5.50;;;2.30;;
4971;SDS011;2501;51.214;6.768;2023-03-23T07:45:44;5.20;;;2.30;;
4971;SDS011;2501;51.214;6.768;2023-03-23T07:48:15;3.53;;;3.22;;
4971;SDS011;2501;51.214;6.768;2023-03-23T07:50:43;8.32;;;3.92;;
4971;SDS011;2501;51.214;6.768;2023-03-23T07:53:12;7.88;;;2.80;;
4971;SDS011;2501;51.214;6.768;2023-03-23T07:55:41;7.17;;;2.83;;
4971;SDS011;2501;51.214;6.768;2023-03-23T07:58:09;4.60;;;2.38;;
4971;SDS011;2501;51.214;6.768;2023-03-23T08:00:43;5.32;;;2.33;;
4971;SDS011;2501;51.214;6.768;2023-03-23T08:03:16;9.07;;;2.30;;
4971;SDS011;2501;51.214;6.768;2023-03-23T08:05:44;4.18;;;2.30;;
4971;SDS011;2501;51.214;6.768;2023-03-23T08:08:13;2.97;;;2.17;;
4971;SDS011;2501;51.214;6.768;2023-03-23T08:10:43;5.03;;;1.85;;
4971;SDS011;2501;51.214;6.768;2023-03-23T08:13:12;3.50;;;2.10;;
4971;SDS011;2501;51.214;6.768;2023-03-23T08:15:40;10.50;;;1.90;;
4971;SDS011;2501;51.214;6.768;2023-03-23T08:18:09;5.38;;;2.17;;
4971;SDS011;2501;51.214;6.768;2023-03-23T08:20:41;6.20;;;2.35;;
4971;SDS011;2501;51.214;6.768;2023-03-23T08:23:09;4.88;;;2.30;;
4971;SDS011;2501;51.214;6.768;2023-03-23T08:25:40;2.58;;;1.77;;
4971;SDS011;2501;51.214;6.768;2023-03-23T08:28:09;6.27;;;2.10;;
4971;SDS011;2501;51.214;6.768;2023-03-23T08:30:39;4.55;;;2.20;;
4971;SDS011;2501;51.214;6.768;2023-03-23T08:33:07;5.53;;;2.10;;
4971;SDS011;2501;51.214;6.768;2023-03-23T08:35:37;4.47;;;2.30;;
4971;SDS011;2501;51.214;6.768;2023-03-23T08:38:08;6.70;;;2.40;;
4971;SDS011;2501;51.214;6.768;2023-03-23T08:40:37;6.95;;;2.53;;
4971;SDS011;2501;51.214;6.768;2023-03-23T08:43:06;7.07;;;2.30;;
4971;SDS011;2501;51.214;6.768;2023-03-23T08:45:38;6.20;;;2.60;;
4971;SDS011;2501;51.214;6.768;2023-03-23T08:48:06;8.57;;;2.22;;
4971;SDS011;2501;51.214;6.768;2023-03-23T08:50:36;4.50;;;1.95;;
4971;SDS011;2501;51.214;6.768;2023-03-23T08:53:06;6.87;;;2.33;;
4971;SDS011;2501;51.214;6.768;2023-03-23T08:55:37;8.45;;;2.80;;
4971;SDS011;2501;51.214;6.768;2023-03-23T08:58:09;5.70;;;2.38;;
4971;SDS011;2501;51.214;6.768;2023-03-23T09:00:38;13.07;;;2.67;;
4971;SDS011;2501;51.214;6.768;2023-03-23T09:03:06;9.82;;;2.20;;
4971;SDS011;2501;51.214;6.768;2023-03-23T09:05:35;4.88;;;2.20;;
4971;SDS011;2501;51.214;6.768;2023-03-23T09:08:10;6.45;;;2.50;;
4971;SDS011;2501;51.214;6.768;2023-03-23T09:10:39;7.70;;;2.40;;
4971;SDS011;2501;51.214;6.768;2023-03-23T09:13:08;3.83;;;1.90;;
4971;SDS011;2501;51.214;6.768;2023-03-23T09:15:36;5.63;;;2.00;;
4971;SDS011;2501;51.214;6.768;2023-03-23T09:18:05;7.07;;;1.97;;
4971;SDS011;2501;51.214;6.768;2023-03-23T09:20:34;6.68;;;2.00;;
4971;SDS011;2501;51.214;6.768;2023-03-23T09:23:03;8.57;;;2.00;;
4971;SDS011;2501;51.214;6.768;2023-03-23T09:25:34;14.68;;;2.00;;
4971;SDS011;2501;51.214;6.768;2023-03-23T09:28:03;7.20;;;2.08;;
4971;SDS011;2501;51.214;6.768;2023-03-23T09:30:32;5.63;;;2.15;;
4971;SDS011;2501;51.214;6.768;2023-03-23T09:33:03;5.35;;;1.75;;
4971;SDS011;2501;51.214;6.768;2023-03-23T09:35:33;5.65;;;2.30;;
4971;SDS011;2501;51.214;6.768;2023-03-23T09:38:03;7.88;;;2.65;;
4971;SDS011;2501;51.214;6.768;2023-03-23T09:40:39;8.57;;;2.42;;
4971;SDS011;2501;51.214;6.768;2023-03-23T09:46:18;7.63;;;2.10;;
4971;SDS011;2501;51.214;6.768;2023-03-23T09:49:03;3.97;;;2.10;;
4971;SDS011;2501;51.214;6.768;2023-03-23T09:51:40;6.70;;;1.88;;
4971;SDS011;2501;51.214;6.768;2023-03-23T09:54:14;5.40;;;1.90;;
4971;SDS011;2501;51.214;6.768;2023-03-23T09:56:50;4.00;;;2.00;;
4971;SDS011;2501;51.214;6.768;2023-03-23T09:59:20;5.93;;;2.65;;
4971;SDS011;2501;51.214;6.768;2023-03-23T10:01:54;5.07;;;1.60;;
4971;SDS011;2501;51.214;6.768;2023-03-23T10:04:29;3.90;;;1.80;;
4971;SDS011;2501;51.214;6.768;2023-03-23T10:07:08;3.90;;;1.00;;
4971;SDS011;2501;51.214;6.768;2023-03-23T10:09:39;3.70;;;1.10;;
4971;SDS011;2501;51.214;6.768;2023-03-23T10:12:19;2.08;;;0.90;;
4971;SDS011;2501;51.214;6.768;2023-03-23T10:14:59;3.80;;;1.20;;
4971;SDS011;2501;51.214;6.768;2023-03-23T10:17:37;2.70;;;1.00;;
4971;SDS011;2501;51.214;6.768;2023-03-23T10:20:21;2.17;;;1.10;;
4971;SDS011;2501;51.214;6.768;2023-03-23T10:22:58;3.00;;;1.27;;
4971;SDS011;2501;51.214;6.768;2023-03-23T10:25:41;1.20;;;1.10;;
4971;SDS011;2501;51.214;6.768;2023-03-23T10:28:15;5.50;;;2.30;;
4971;SDS011;2501;51.214;6.768;2023-03-23T10:30:48;2.10;;;1.45;;
4971;SDS011;2501;51.214;6.768;2023-03-23T10:33:20;2.70;;;1.10;;
4971;SDS011;2501;51.214;6.768;2023-03-23T10:35:55;1.52;;;1.23;;
4971;SDS011;2501;51.214;6.768;2023-03-23T10:41:17;4.20;;;1.30;;
4971;SDS011;2501;51.214;6.768;2023-03-23T10:43:49;4.68;;;1.50;;
4971;SDS011;2501;51.214;6.768;2023-03-23T10:46:22;1.77;;;1.40;;
4971;SDS011;2501;51.214;6.768;2023-03-23T10:49:01;3.88;;;1.48;;
4971;SDS011;2501;51.214;6.768;2023-03-23T10:51:31;2.90;;;1.40;;
4971;SDS011;2501;51.214;6.768;2023-03-23T10:54:03;4.55;;;1.40;;
4971;SDS011;2501;51.214;6.768;2023-03-23T10:56:37;3.80;;;1.27;;
4971;SDS011;2501;51.214;6.768;2023-03-23T10:59:18;3.80;;;1.58;;
4971;SDS011;2501;51.214;6.768;2023-03-23T11:01:50;4.30;;;1.80;;
4971;SDS011;2501;51.214;6.768;2023-03-23T11:04:22;3.58;;;1.52;;
4971;SDS011;2501;51.214;6.768;2023-03-23T11:06:52;2.55;;;1.65;;
4971;SDS011;2501;51.214;6.768;2023-03-23T11:09:36;6.22;;;1.65;;
4971;SDS011;2501;51.214;6.768;2023-03-23T11:12:15;6.40;;;1.40;;
4971;SDS011;2501;51.214;6.768;2023-03-23T11:14:48;4.40;;;1.40;;
4971;SDS011;2501;51.214;6.768;2023-03-23T11:17:21;4.63;;;1.88;;
4971;SDS011;2501;51.214;6.768;2023-03-23T11:19:52;3.33;;;1.55;;
4971;SDS011;2501;51.214;6.768;2023-03-23T11:22:23;2.22;;;2.00;;
4971;SDS011;2501;51.214;6.768;2023-03-23T11:24:55;1.83;;;1.65;;
4971;SDS011;2501;51.214;6.768;2023-03-23T11:27:27;4.20;;;2.08;;
4971;SDS011;2501;51.214;6.768;2023-03-23T11:30:00;4.72;;;1.50;;
4971;SDS011;2501;51.214;6.768;2023-03-23T11:32:36;4.38;;;2.33;;
4971;SDS011;2501;51.214;6.768;2023-03-23T11:35:07;3.30;;;2.30;;
4971;SDS011;2501;51.214;6.768;2023-03-23T11:37:47;2.40;;;2.20;;
4971;SDS011;2501;51.214;6.768;2023-03-23T11:40:19;2.58;;;1.73;;
4971;SDS011;2501;51.214;6.768;2023-03-23T11:42:49;4.20;;;2.40;;
4971;SDS011;2501;51.214;6.768;2023-03-23T11:45:30;4.25;;;2.20;;
4971;SDS011;2501;51.214;6.768;2023-03-23T11:48:05;6.68;;;2.70;;
4971;SDS011;2501;51.214;6.768;2023-03-23T11:50:45;2.70;;;2.50;;
4971;SDS011;2501;51.214;6.768;2023-03-23T11:53:29;3.58;;;2.00;;
4971;SDS011;2501;51.214;6.768;2023-03-23T11:56:08;5.20;;;2.60;;
4971;SDS011;2501;51.214;6.768;2023-03-23T11:58:42;6.63;;;2.20;;
4971;SDS011;2501;51.214;6.768;2023-03-23T12:01:15;3.30;;;2.60;;
4971;SDS011;2501;51.214;6.768;2023-03-23T12:03:58;5.50;;;2.78;;
4971;SDS011;2501;51.214;6.768;2023-03-23T12:06:39;5.20;;;2.70;;
4971;SDS011;2501;51.214;6.768;2023-03-23T12:09:19;7.25;;;3.33;;
4971;SDS011;2501;51.214;6.768;2023-03-23T12:12:01;2.45;;;2.25;;
4971;SDS011;2501;51.214;6.768;2023-03-23T12:14:40;6.03;;;3.30;;
4971;SDS011;2501;51.214;6.768;2023-03-23T12:17:20;4.40;;;2.88;;
4971;SDS011;2501;51.214;6.768;2023-03-23T12:20:03;6.25;;;2.70;;
4971;SDS011;2501;51.214;6.768;2023-03-23T12:22:46;3.35;;;3.00;;
4971;SDS011;2501;51.214;6.768;2023-03-23T12:28:19;4.53;;;2.45;;
4971;SDS011;2501;51.214;6.768;2023-03-23T12:30:58;7.53;;;2.90;;
4971;SDS011;2501;51.214;6.768;2023-03-23T12:33:41;3.65;;;2.63;;
4971;SDS011;2501;51.214;6.768;2023-03-23T12:36:19;4.40;;;2.88;;
4971;SDS011;2501;51.214;6.768;2023-03-23T12:39:02;4.43;;;2.75;;
4971;SDS011;2501;51.214;6.768;2023-03-23T12:41:48;4.65;;;2.95;;
4971;SDS011;2501;51.214;6.768;2023-03-23T12:44:22;5.05;;;4.55;;
4971;SDS011;2501;51.214;6.768;2023-03-23T12:47:03;7.40;;;4.50;;
4971;SDS011;2501;51.214;6.768;2023-03-23T12:49:46;5.70;;;3.15;;
4971;SDS011;2501;51.214;6.768;2023-03-23T12:52:19;6.40;;;2.80;;
4971;SDS011;2501;51.214;6.768;2023-03-23T12:54:53;3.40;;;3.10;;
4971;SDS011;2501;51.214;6.768;2023-03-23T12:57:31;3.42;;;3.00;;
4971;SDS011;2501;51.214;6.768;2023-03-23T13:00:05;3.47;;;2.60;;
4971;SDS011;2501;51.214;6.768;2023-03-23T13:02:43;2.97;;;2.78;;
4971;SDS011;2501;51.214;6.768;2023-03-23T13:05:28;3.38;;;3.03;;
4971;SDS011;2501;51.214;6.768;2023-03-23T13:08:04;3.85;;;3.65;;
4971;SDS011;2501;51.214;6.768;2023-03-23T13:10:39;4.10;;;3.40;;
4971;SDS011;2501;51.214;6.768;2023-03-23T13:13:11;6.10;;;3.90;;
4971;SDS011;2501;51.214;6.768;2023-03-23T13:15:44;5.60;;;4.23;;
4971;SDS011;2501;51.214;6.768;2023-03-23T13:18:24;7.25;;;4.68;;
4971;SDS011;2501;51.214;6.768;2023-03-23T13:21:05;5.05;;;4.13;;
4971;SDS011;2501;51.214;6.768;2023-03-23T13:23:40;3.70;;;3.40;;
4971;SDS011;2501;51.214;6.768;2023-03-23T13:26:12;3.70;;;3.50;;
4971;SDS011;2501;51.214;6.768;2023-03-23T13:28:51;4.13;;;3.67;;
4971;SDS011;2501;51.214;6.768;2023-03-23T13:31:27;5.80;;;3.97;;
4971;SDS011;2501;51.214;6.768;2023-03-23T13:34:00;7.20;;;4.40;;
4971;SDS011;2501;51.214;6.768;2023-03-23T13:36:34;5.53;;;4.57;;
4971;SDS011;2501;51.214;6.768;2023-03-23T13:39:05;9.17;;;5.00;;
4971;SDS011;2501;51.214;6.768;2023-03-23T13:41:48;7.88;;;5.18;;
4971;SDS011;2501;51.214;6.768;2023-03-23T13:44:27;7.97;;;4.82;;
4971;SDS011;2501;51.214;6.768;2023-03-23T13:47:16;5.40;;;4.32;;
4971;SDS011;2501;51.214;6.768;2023-03-23T13:49:52;5.60;;;5.10;;
4971;SDS011;2501;51.214;6.768;2023-03-23T13:52:35;5.22;;;4.72;;
4971;SDS011;2501;51.214;6.768;2023-03-23T13:55:17;12.40;;;7.20;;
4971;SDS011;2501;51.214;6.768;2023-03-23T13:57:49;10.55;;;6.85;;
4971;SDS011;2501;51.214;6.768;2023-03-23T14:00:26;11.18;;;6.57;;
4971;SDS011;2501;51.214;6.768;2023-03-23T14:03:03;7.30;;;5.80;;
4971;SDS011;2501;51.214;6.768;2023-03-23T14:05:39;11.35;;;6.47;;
4971;SDS011;2501;51.214;6.768;2023-03-23T14:08:13;7.18;;;5.22;;
4971;SDS011;2501;51.214;6.768;2023-03-23T14:10:50;7.25;;;5.53;;
4971;SDS011;2501;51.214;6.768;2023-03-23T14:13:28;8.88;;;3.90;;
4971;SDS011;2501;51.214;6.768;2023-03-23T14:16:00;4.00;;;3.30;;
4971;SDS011;2501;51.214;6.768;2023-03-23T14:18:31;5.30;;;3.42;;
4971;SDS011;2501;51.214;6.768;2023-03-23T14:21:03;4.95;;;2.10;;
4971;SDS011;2501;51.214;6.768;2023-03-23T14:23:36;4.28;;;1.88;;
4971;SDS011;2501;51.214;6.768;2023-03-23T14:26:09;3.55;;;2.47;;
4971;SDS011;2501;51.214;6.768;2023-03-23T14:28:42;4.18;;;2.00;;
4971;SDS011;2501;51.214;6.768;2023-03-23T14:31:14;6.37;;;2.73;;
4971;SDS011;2501;51.214;6.768;2023-03-23T14:33:46;3.20;;;1.90;;
4971;SDS011;2501;51.214;6.768;2023-03-23T14:36:19;5.47;;;2.00;;
4971;SDS011;2501;51.214;6.768;2023-03-23T14:38:54;4.93;;;3.05;;
4971;SDS011;2501;51.214;6.768;2023-03-23T14:41:27;4.60;;;2.20;;
4971;SDS011;2501;51.214;6.768;2023-03-23T14:43:56;5.90;;;2.30;;
4971;SDS011;2501;51.214;6.768;2023-03-23T14:46:29;5.65;;;2.80;;
4971;SDS011;2501;51.214;6.768;2023-03-23T14:48:59;8.05;;;2.88;;
4971;SDS011;2501;51.214;6.768;2023-03-23T14:51:29;4.22;;;2.22;;
4971;SDS011;2501;51.214;6.768;2023-03-23T14:54:00;4.95;;;2.70;;
4971;SDS011;2501;51.214;6.768;2023-03-23T14:56:33;5.10;;;2.20;;
4971;SDS011;2501;51.214;6.768;2023-03-23T14:59:05;7.22;;;2.75;;
4971;SDS011;2501;51.214;6.768;2023-03-23T15:01:35;9.00;;;3.58;;
4971;SDS011;2501;51.214;6.768;2023-03-23T15:04:07;6.72;;;3.10;;
4971;SDS011;2501;51.214;6.768;2023-03-23T15:06:38;5.30;;;2.40;;
4971;SDS011;2501;51.214;6.768;2023-03-23T15:09:14;7.25;;;2.42;;
4971;SDS011;2501;51.214;6.768;2023-03-23T15:11:51;5.63;;;2.33;;
4971;SDS011;2501;51.214;6.768;2023-03-23T15:14:22;5.55;;;2.65;;
4971;SDS011;2501;51.214;6.768;2023-03-23T15:16:54;8.55;;;2.63;;
4971;SDS011;2501;51.214;6.768;2023-03-23T15:19:26;4.88;;;1.92;;
4971;SDS011;2501;51.214;6.768;2023-03-23T15:22:04;10.73;;;3.17;;
4971;SDS011;2501;51.214;6.768;2023-03-23T15:24:37;5.80;;;2.00;;
4971;SDS011;2501;51.214;6.768;2023-03-23T15:27:11;3.63;;;1.80;;
4971;SDS011;2501;51.214;6.768;2023-03-23T15:29:47;4.50;;;2.03;;
4971;SDS011;2501;51.214;6.768;2023-03-23T15:32:21;7.97;;;2.60;;
4971;SDS011;2501;51.214;6.768;2023-03-23T15:34:51;6.13;;;2.30;;
4971;SDS011;2501;51.214;6.768;2023-03-23T15:37:21;6.47;;;2.40;;
4971;SDS011;2501;51.214;6.768;2023-03-23T15:39:57;7.40;;;2.33;;
4971;SDS011;2501;51.214;6.768;2023-03-23T15:42:30;8.20;;;2.60;;
4971;SDS011;2501;51.214;6.768;2023-03-23T15:45:14;5.35;;;2.10;;
4971;SDS011;2501;51.214;6.768;2023-03-23T15:47:49;5.78;;;1.90;;
4971;SDS011;2501;51.214;6.768;2023-03-23T15:50:19;7.05;;;2.40;;
4971;SDS011;2501;51.214;6.768;2023-03-23T15:52:59;8.65;;;3.35;;
4971;SDS011;2501;51.214;6.768;2023-03-23T15:55:35;4.10;;;2.43;;
4971;SDS011;2501;51.214;6.768;2023-03-23T15:58:07;5.28;;;3.30;;
4971;SDS011;2501;51.214;6.768;2023-03-23T16:00:39;7.72;;;3.67;;